createdAt,value
2023-11-18T00:02:35.989Z,99177.27
2023-11-18T00:06:33.830Z,99178.14
2023-11-18T00:10:31.854Z,99181.73
2023-11-18T00:14:29.826Z,99184.17
2023-11-18T00:18:27.785Z,99185.61
2023-11-18T00:22:25.918Z,99188.90
2023-11-18T00:26:23.741Z,99195.09
2023-11-18T00:30:23.845Z,99199.39
2023-11-18T00:34:21.787Z,99207.84
2023-11-18T00:38:19.749Z,99211.74
2023-11-18T00:42:17.785Z,99209.54
2023-11-18T00:46:15.815Z,99207.52
2023-11-18T00:50:15.779Z,99210.92
2023-11-18T00:54:13.863Z,99213.23
2023-11-18T00:58:12.693Z,99217.61
2023-11-18T01:02:12.763Z,99218.08
2023-11-18T01:06:10.741Z,99221.80
2023-11-18T01:10:08.724Z,99221.05
2023-11-18T01:14:06.741Z,99219.85
2023-11-18T01:18:04.745Z,99218.17
2023-11-18T01:22:02.734Z,99217.43
2023-11-18T01:26:00.799Z,99222.23
2023-11-18T01:29:58.663Z,99218.79
2023-11-18T01:33:57.764Z,99220.59
2023-11-18T01:37:55.814Z,99220.14
2023-11-18T01:41:53.665Z,99220.86
2023-11-18T01:45:51.804Z,99218.23
2023-11-18T01:49:52.718Z,99219.37
2023-11-18T01:53:52.684Z,99226.31
2023-11-18T01:57:51.672Z,99228.30
2023-11-18T02:01:50.696Z,99230.36
2023-11-18T02:05:49.658Z,99236.77
2023-11-18T02:09:48.624Z,99239.48
2023-11-18T02:13:50.678Z,99240.71
2023-11-18T02:17:49.775Z,99242.90
2023-11-18T02:21:47.608Z,99243.10
2023-11-18T02:25:48.624Z,99241.64
2023-11-18T02:29:49.693Z,99242.83
2023-11-18T02:33:55.685Z,99242.73
2023-11-18T02:37:59.741Z,99243.34
2023-11-18T02:41:57.573Z,99245.85
2023-11-18T02:45:56.624Z,99248.64
2023-11-18T02:49:56.624Z,99246.16
2023-11-18T02:53:54.585Z,99254.29
2023-11-18T02:57:54.591Z,99257.88
2023-11-18T03:01:52.631Z,99253.11
2023-11-18T03:05:50.574Z,99257.48
2023-11-18T03:09:48.584Z,99261.13
2023-11-18T03:13:46.530Z,99259.28
2023-11-18T03:17:44.613Z,99266.50
2023-11-18T03:21:42.523Z,99265.73
2023-11-18T03:25:40.588Z,99268.49
2023-11-18T03:29:38.551Z,99273.39
2023-11-18T03:33:36.551Z,99274.37
2023-11-18T03:37:35.553Z,99273.01
2023-11-18T03:41:33.593Z,99275.28
2023-11-18T03:45:31.519Z,99277.45
2023-11-18T03:49:29.522Z,99286.38
2023-11-18T03:53:27.477Z,99285.52
2023-11-18T03:57:25.533Z,99286.88
2023-11-18T04:01:23.544Z,99290.92
2023-11-18T04:05:22.514Z,99298.19
2023-11-18T04:09:20.476Z,99300.56
2023-11-18T04:13:18.467Z,99294.38
2023-11-18T04:17:16.593Z,99294.06
2023-11-18T04:21:15.502Z,99292.66
2023-11-18T04:25:14.435Z,99290.98
2023-11-18T04:29:14.505Z,99294.48
2023-11-18T04:33:12.413Z,99298.36
2023-11-18T04:37:10.466Z,99305.52
2023-11-18T04:41:08.496Z,99309.71
2023-11-18T04:45:06.617Z,99310.68
2023-11-18T04:49:04.499Z,99312.19
2023-11-18T04:53:02.443Z,99319.77
2023-11-18T04:57:00.394Z,99323.65
2023-11-18T05:00:58.419Z,99321.48
2023-11-18T05:04:56.435Z,99319.64
2023-11-18T05:08:54.481Z,99320.12
2023-11-18T05:13:01.422Z,99317.64
2023-11-18T05:16:59.496Z,99322.44
2023-11-18T05:20:57.410Z,99329.45
2023-11-18T05:24:55.417Z,99333.50
2023-11-18T05:28:53.461Z,99337.28
2023-11-18T05:32:51.424Z,99337.01
2023-11-18T05:36:49.341Z,99341.88
2023-11-18T05:40:50.426Z,99345.77
2023-11-18T05:44:49.329Z,99350.30
2023-11-18T05:48:47.349Z,99356.54
2023-11-18T05:52:45.419Z,99362.83
2023-11-18T05:56:43.351Z,99362.84
2023-11-18T06:00:42.062Z,99367.64
2023-11-18T06:04:40.346Z,99376.52
2023-11-18T06:08:40.314Z,99377.48
2023-11-18T06:12:39.347Z,99381.50
2023-11-18T06:16:40.698Z,99384.55
2023-11-18T06:20:40.389Z,99391.05
2023-11-18T06:24:38.300Z,99399.65
2023-11-18T06:28:36.303Z,99402.09
2023-11-18T06:32:34.306Z,99399.35
2023-11-18T06:36:34.308Z,99409.33
2023-11-18T06:40:34.313Z,99412.37
2023-11-18T06:44:32.318Z,99421.20
2023-11-18T06:48:30.297Z,99423.55
2023-11-18T06:52:29.274Z,99431.13
2023-11-18T06:56:27.250Z,99433.88
2023-11-18T07:00:25.246Z,99436.16
2023-11-18T07:04:23.256Z,99439.22
2023-11-18T07:08:21.305Z,99445.38
2023-11-18T07:12:19.246Z,99448.36
2023-11-18T07:16:17.301Z,99458.81
2023-11-18T07:20:15.229Z,99460.18
2023-11-18T07:24:13.494Z,99460.82
2023-11-18T07:28:13.233Z,99462.05
2023-11-18T07:32:13.323Z,99469.14
2023-11-18T07:36:13.264Z,99471.53
2023-11-18T07:40:12.221Z,99478.59
2023-11-18T07:44:10.312Z,99481.00
2023-11-18T07:48:08.349Z,99481.89
2023-11-18T07:52:06.214Z,99480.97
2023-11-18T07:56:04.265Z,99482.73
2023-11-18T08:00:02.188Z,99486.07
2023-11-18T08:04:04.260Z,99490.20
2023-11-18T08:08:02.143Z,99498.48
2023-11-18T08:12:03.163Z,99505.52
2023-11-18T08:16:01.261Z,99508.06
2023-11-18T08:19:59.171Z,99508.02
2023-11-18T08:23:57.106Z,99510.29
2023-11-18T08:27:56.186Z,99516.61
2023-11-18T08:31:55.194Z,99522.80
2023-11-18T08:35:54.129Z,99529.16
2023-11-18T08:39:52.152Z,99529.14
2023-11-18T08:43:50.197Z,99531.52
2023-11-18T08:47:48.117Z,99537.98
2023-11-18T08:51:46.131Z,99539.38
2023-11-18T08:55:48.082Z,99545.66
2023-11-18T08:59:46.167Z,99548.49
2023-11-18T09:03:44.256Z,99551.52
2023-11-18T09:07:42.168Z,99560.46
2023-11-18T09:11:41.070Z,99562.13
2023-11-18T09:15:39.091Z,99565.77
2023-11-18T09:19:38.116Z,99568.33
2023-11-18T09:23:39.150Z,99572.79
2023-11-18T09:27:37.064Z,99580.84
2023-11-18T09:31:35.191Z,99574.77
2023-11-18T09:35:33.047Z,99576.95
2023-11-18T09:39:45.055Z,99573.27
2023-11-18T09:43:50.165Z,99579.79
2023-11-18T09:47:55.097Z,99573.55
2023-11-18T09:51:55.055Z,99575.14
2023-11-18T09:56:08.067Z,99583.11
2023-11-18T10:00:28.260Z,99585.98
2023-11-18T10:04:28.091Z,99584.93
2023-11-18T10:08:26.080Z,99590.52
2023-11-18T10:12:32.044Z,99587.52
2023-11-18T10:16:34.989Z,99585.94
2023-11-18T10:20:36.083Z,99592.23
2023-11-18T10:24:33.953Z,99598.98
2023-11-18T10:28:40.018Z,99605.23
2023-11-18T10:32:38.071Z,99602.40
2023-11-18T10:36:41.038Z,99606.45
2023-11-18T10:40:38.953Z,99605.33
2023-11-18T10:44:37.041Z,99608.80
2023-11-18T10:48:34.945Z,99607.40
2023-11-18T10:52:33.966Z,99614.23
2023-11-18T10:56:38.929Z,99615.73
2023-11-18T11:00:40.975Z,99614.20
2023-11-18T11:04:38.928Z,99620.55
2023-11-18T11:12:37.913Z,99623.69
2023-11-18T11:16:40.937Z,99619.70
2023-11-18T11:20:40.924Z,99624.39
2023-11-18T11:24:57.000Z,99621.84
2023-11-18T11:29:21.272Z,99630.11
2023-11-18T11:33:30.892Z,99632.45
2023-11-18T11:37:31.030Z,99632.80
2023-11-18T11:41:33.970Z,99641.02
2023-11-18T11:45:35.899Z,99641.30
2023-11-18T11:49:37.858Z,99642.63
2023-11-18T11:53:40.971Z,99645.66
2023-11-18T11:57:40.875Z,99646.06
2023-11-18T12:01:42.866Z,99646.81
2023-11-18T12:05:41.906Z,99649.23
2023-11-18T12:09:46.897Z,99655.61
2023-11-18T12:13:46.915Z,99656.06
2023-11-18T12:17:45.872Z,99660.29
2023-11-18T12:22:09.830Z,99664.80
2023-11-18T12:26:10.867Z,99670.35
2023-11-18T12:30:08.827Z,99668.59
2023-11-18T12:34:07.791Z,99674.00
2023-11-18T12:38:42.829Z,99685.18
2023-11-18T12:43:14.984Z,99685.88
2023-11-18T12:47:25.893Z,99693.92
2023-11-18T12:51:27.814Z,99702.05
2023-11-18T12:55:28.800Z,99708.52
2023-11-18T12:59:26.831Z,99706.99
2023-11-18T13:03:25.901Z,99712.09
2023-11-18T13:07:24.757Z,99716.45
2023-11-18T13:11:23.836Z,99719.35
2023-11-18T13:15:23.803Z,99723.96
2023-11-18T13:19:21.765Z,99729.92
2023-11-18T13:23:19.798Z,99737.14
2023-11-18T13:27:17.878Z,99737.73
2023-11-18T13:31:17.823Z,99747.05
2023-11-18T13:35:17.839Z,99757.31
2023-11-18T13:39:16.741Z,99760.09
2023-11-18T13:43:18.742Z,99763.74
2023-11-18T13:47:19.786Z,99773.23
2023-11-18T13:51:20.742Z,99772.89
2023-11-18T13:55:22.718Z,99776.14
2023-11-18T13:59:20.793Z,99777.57
2023-11-18T14:03:19.840Z,99789.60
2023-11-18T14:07:19.689Z,99799.48
2023-11-18T14:11:18.231Z,99799.08
2023-11-18T14:15:17.712Z,99806.69
2023-11-18T14:19:15.714Z,99802.23
2023-11-18T14:23:13.719Z,99802.73
2023-11-18T14:27:12.678Z,99812.31
2023-11-18T14:31:11.784Z,99815.07
2023-11-18T14:35:09.704Z,99820.62
2023-11-18T14:39:07.736Z,99822.68
2023-11-18T14:43:05.682Z,99827.80
2023-11-18T14:47:03.792Z,99830.36
2023-11-18T14:51:02.715Z,99830.92
2023-11-18T14:55:00.628Z,99840.02
2023-11-18T14:58:58.678Z,99851.29
2023-11-18T15:02:59.374Z,99844.23
2023-11-18T15:07:00.616Z,99837.92
2023-11-18T15:10:58.620Z,99846.20
2023-11-18T15:14:56.623Z,99855.92
2023-11-18T15:18:55.657Z,99860.90
2023-11-18T15:22:53.683Z,99870.39
2023-11-18T15:26:52.377Z,99874.39
2023-11-18T15:30:51.751Z,99874.81
2023-11-18T15:34:49.649Z,99878.36
2023-11-18T15:38:47.710Z,99880.19
2023-11-18T15:42:45.579Z,99886.33
2023-11-18T15:46:45.599Z,99895.86
2023-11-18T15:50:45.570Z,99898.94
2023-11-18T15:54:44.560Z,99904.11
2023-11-18T15:58:43.582Z,99904.45
2023-11-18T16:02:41.566Z,99910.98
2023-11-18T16:06:39.571Z,99908.33
2023-11-18T16:10:39.652Z,99907.52
2023-11-18T16:14:37.695Z,99912.98
2023-11-18T16:18:35.548Z,99917.74
2023-11-18T16:22:33.516Z,99918.20
2023-11-18T16:26:31.570Z,99916.70
2023-11-18T16:30:32.593Z,99920.20
2023-11-18T16:34:30.510Z,99926.67
2023-11-18T16:38:28.626Z,99927.09
2023-11-18T16:42:27.461Z,99931.93
2023-11-18T16:46:26.567Z,99929.47
2023-11-18T16:50:27.750Z,99934.33
2023-11-18T16:54:36.044Z,99936.36
2023-11-18T16:58:38.500Z,99937.90
2023-11-18T17:02:36.607Z,99939.85
2023-11-18T17:06:34.447Z,99941.42
2023-11-18T17:10:32.489Z,99939.86
2023-11-18T17:14:30.475Z,99946.55
2023-11-18T17:18:28.543Z,99942.85
2023-11-18T17:22:26.469Z,99939.16
2023-11-18T17:26:24.463Z,99941.92
2023-11-18T17:30:23.563Z,99944.63
2023-11-18T17:34:21.444Z,99949.02
2023-11-18T17:38:19.444Z,99953.53
2023-11-18T17:42:17.471Z,99958.60
2023-11-18T17:46:18.433Z,99954.71
2023-11-18T17:50:20.461Z,99962.56
2023-11-18T17:54:18.420Z,99968.90
2023-11-18T17:58:18.390Z,99971.23
2023-11-18T18:02:19.408Z,99963.20
2023-11-18T18:06:17.377Z,99960.60
2023-11-18T18:10:16.347Z,99963.21
2023-11-18T18:14:15.379Z,99967.07
2023-11-18T18:18:13.397Z,99974.52
2023-11-18T18:22:11.366Z,99971.42
2023-11-18T18:26:09.335Z,99973.33
2023-11-18T18:30:07.377Z,99969.27
2023-11-18T18:34:05.340Z,99963.89
2023-11-18T18:38:03.396Z,99957.85
2023-11-18T18:42:01.328Z,99955.85
2023-11-18T18:45:59.465Z,99953.17
2023-11-18T18:49:57.340Z,99956.64
2023-11-18T18:53:55.365Z,99956.27
2023-11-18T18:57:53.344Z,99956.80
2023-11-18T19:01:52.358Z,99958.37
2023-11-18T19:05:50.271Z,99952.42
2023-11-18T19:09:49.327Z,99949.52
2023-11-18T19:13:47.278Z,99947.55
2023-11-18T19:17:45.435Z,99948.58
2023-11-18T19:21:43.250Z,99956.53
2023-11-18T19:25:41.294Z,99962.83
2023-11-18T19:29:41.404Z,99957.96
2023-11-18T19:33:40.269Z,99952.85
2023-11-18T19:37:38.249Z,99959.64
2023-11-18T19:41:36.331Z,99957.02
2023-11-18T19:45:34.352Z,99957.73
2023-11-18T19:49:33.298Z,99956.83
2023-11-18T19:53:31.265Z,99960.22
2023-11-18T19:57:29.249Z,99954.52
2023-11-18T20:01:30.250Z,99948.11
2023-11-18T20:05:28.259Z,99946.90
2023-11-18T20:09:26.186Z,99943.31
2023-11-18T20:13:24.242Z,99943.09
2023-11-18T20:17:22.227Z,99943.59
2023-11-18T20:21:20.253Z,99947.25
2023-11-18T20:25:18.219Z,99942.15
2023-11-18T20:29:16.248Z,99947.02
2023-11-18T20:33:14.264Z,99955.17
2023-11-18T20:37:13.205Z,99951.54
2023-11-18T20:41:11.231Z,99947.27
2023-11-18T20:45:09.210Z,99941.11
2023-11-18T20:49:07.139Z,99936.77
2023-11-18T20:53:05.658Z,99937.10
2023-11-18T20:57:03.170Z,99936.14
2023-11-18T21:01:07.811Z,99937.02
2023-11-18T21:05:06.915Z,99935.85
2023-11-18T21:09:05.119Z,99937.90
2023-11-18T21:13:03.130Z,99940.52
2023-11-18T21:17:08.469Z,99947.23
2023-11-18T21:21:07.134Z,99944.96
2023-11-18T21:25:05.115Z,99938.94
2023-11-18T21:29:03.128Z,99931.86
2023-11-18T21:33:03.235Z,99925.54
2023-11-18T21:37:01.090Z,99923.63
2023-11-18T21:40:59.125Z,99914.96
2023-11-18T21:44:57.108Z,99912.61
2023-11-18T21:48:55.134Z,99922.14
2023-11-18T21:52:53.106Z,99911.72
2023-11-18T21:56:51.182Z,99911.85
2023-11-18T22:00:49.065Z,99902.77
2023-11-18T22:04:47.091Z,99901.30
2023-11-18T22:08:45.129Z,99907.09
2023-11-18T22:12:43.052Z,99911.91
2023-11-18T22:16:41.125Z,99905.85
2023-11-18T22:20:39.150Z,99903.64
2023-11-18T22:24:37.170Z,99902.31
2023-11-18T22:28:39.058Z,99905.20
2023-11-18T22:32:37.063Z,99901.04
2023-11-18T22:36:35.093Z,99895.99
2023-11-18T22:40:34.001Z,99891.70
2023-11-18T22:44:35.435Z,99884.84
2023-11-18T22:48:34.013Z,99876.04
2023-11-18T22:52:33.012Z,99889.34
2023-11-18T22:56:31.048Z,99898.64
2023-11-18T23:00:45.084Z,99893.33
2023-11-18T23:04:42.986Z,99898.39
2023-11-18T23:08:50.995Z,99905.48
2023-11-18T23:12:48.940Z,99916.23
2023-11-18T23:16:47.011Z,99910.03
2023-11-18T23:20:45.950Z,99906.83
2023-11-18T23:24:44.971Z,99899.90
2023-11-18T23:28:42.954Z,99898.64
2023-11-18T23:32:41.008Z,99911.11
2023-11-18T23:36:39.004Z,99909.16
2023-11-18T23:40:37.003Z,99903.40
2023-11-18T23:44:35.964Z,99894.02
2023-11-18T23:48:33.955Z,99902.44
2023-11-18T23:52:31.900Z,99908.87
2023-11-18T23:56:29.940Z,99905.57
